Adams Field
KLIT : now visible

Airfield :











YOU CAN JOIN US ON...

 
LOGIN :

Register | Disclaimer

   EN    FR    IT 

 









Legend :    VFR   Marginal VFR   IFR   Intensive IFR   Very Intensive IFR
Visi :
Ceiling :
>= 8 km
>= 3000ft
5 to 8 km
1000 to 3000 ft
1500m to 5 km
500 to 1000 ft
800 to 1500m
200 to 500 ft
< 800m
< 200 ft
Symbols :   Thunderstorms  Fog  Heavy snow  Heavy precipitations  Wind > 20 kt






- Airport Elevation : 262 ft
- IATA code : LIT


KLIT - Adams Field

CURRENT METAR :
  • 291353Z 04008KT 3SM -DZ BR OVC006 04/03 A3001 RMK AO2 RAE33DZB53 SLP166 P0000 T00440033 $

EXPIRED METARs :
  • 291253Z 02007KT 4SM -RA BR OVC007 04/04 A2999 RMK AO2 SLP160 P0001 T00440039 $
  • 291153Z 03006KT 3SM -RA BR OVC006 04/04 A2998 RMK AO2 SLP154 P0002 60011 70030 T00440039 10050 20044 53007 $

TAF KLIT
Valid from the 29 at 12:00 until the 30 at 12:00 UTC


291120Z 2912/3012 05005KT 4SM -RA BR OVC005
TEMPO 2912/2915 2SM -RA BR
FM291600 03006KT 3SM -RA BR OVC005
FM292100 03009KT P6SM OVC015



MET'MAP, your aeronautical weather chart ! - Copyright ORBIFLY December 2007 - Disclaimer

ORBIFLY MET'MAP TEAM :

Programming & Development : Alexandra Zaïnal
Concept & original design : Baudouin d'Aumeries
Assistance for programming : Marc-Olivier Méhu
Technical & hardware support : Manuel Goepfert

Contact : metmap@orbifly.com




SOURCES & CREDITS :

   NOAA       Earth
Advisory